Time;durP1;ratioP1;P1;durP2;ratioP2;P2;SDS_P1;SDS_P2;PMS_P1;PMS_P2;Temp;Humidity;BMP_temperature;BMP_pressure;BME280_temperature;BME280_humidity;BME280_pressure;Samples;Min_cycle;Max_cycle;Signal;HPM_P1;HPM_P2
2022/08/08 00:00:52;;;;;;;9.10;8.20;;;;;;;21.28;55.03;99627.03;5054283;28;20051;-83
2022/08/08 00:03:36;;;;;;;9.93;8.20;;;;;;;21.34;54.85;99641.81;5037640;28;20037;-81
2022/08/08 00:06:28;;;;;;;12.30;8.63;;;;;;;21.33;55.22;99645.56;5055122;28;20045;-82
2022/08/08 00:09:24;;;;;;;10.25;7.97;;;;;;;21.32;54.81;99643.81;5055276;28;20076;-81
2022/08/08 00:11:59;;;;;;;10.35;8.40;;;;;;;21.24;54.99;99641.19;5052251;28;20141;-79
2022/08/08 00:14:38;;;;;;;11.70;8.65;;;;;;;21.19;55.42;99654.50;5037717;28;20067;-83
2022/08/08 00:17:16;;;;;;;10.85;8.60;;;;;;;21.16;55.20;99650.25;5053953;28;20048;-82
2022/08/08 00:19:59;;;;;;;14.65;8.77;;;;;;;21.15;55.60;99647.75;5038100;28;20045;-85
2022/08/08 00:22:31;;;;;;;9.07;7.95;;;;;;;21.03;55.76;99652.78;5055053;28;20086;-82
2022/08/08 00:25:04;;;;;;;10.85;9.00;;;;;;;20.99;55.62;99637.84;5054211;28;20040;-82
2022/08/08 00:27:32;;;;;;;13.15;8.70;;;;;;;21.04;55.58;99651.72;5053705;28;20382;-82
2022/08/08 00:30:05;;;;;;;11.10;9.13;;;;;;;20.96;55.59;99641.78;5037172;28;20073;-82
2022/08/08 00:33:13;;;;;;;10.35;8.15;;;;;;;21.01;55.64;99652.94;5037057;28;20076;-79
2022/08/08 00:36:11;;;;;;;13.02;8.82;;;;;;;20.98;55.90;99647.84;5018928;28;20049;-81
2022/08/08 00:39:16;;;;;;;10.02;9.05;;;;;;;20.97;55.73;99657.03;5053544;28;20048;-81
2022/08/08 00:42:00;;;;;;;10.80;8.05;;;;;;;20.97;55.74;99659.75;5036192;28;20099;-83
2022/08/08 00:44:26;;;;;;;15.40;9.40;;;;;;;20.97;55.92;99651.59;5020182;28;20503;-84
2022/08/08 00:47:04;;;;;;;11.10;9.02;;;;;;;20.95;55.80;99664.56;5036360;28;20516;-83
2022/08/08 00:50:08;;;;;;;10.65;9.40;;;;;;;20.92;55.61;99659.47;5053267;28;20037;-83
2022/08/08 00:53:01;;;;;;;10.95;8.68;;;;;;;20.84;55.73;99664.97;5054615;28;20060;-82
2022/08/08 00:56:00;;;;;;;11.55;8.70;;;;;;;20.76;56.13;99659.56;5053278;28;20072;-83
2022/08/08 00:58:31;;;;;;;10.23;9.13;;;;;;;20.70;56.22;99663.88;5020578;28;20415;-84
2022/08/08 01:01:06;;;;;;;11.63;8.90;;;;;;;20.55;56.43;99654.81;5035448;28;20049;-82
2022/08/08 01:04:10;;;;;;;14.32;8.80;;;;;;;20.59;56.32;99667.00;5019882;28;20037;-82
2022/08/08 01:07:00;;;;;;;13.68;9.13;;;;;;;20.50;56.74;99666.22;5053532;28;20045;-83
2022/08/08 01:10:06;;;;;;;18.27;9.45;;;;;;;20.45;56.70;99667.72;5036659;28;20067;-84
2022/08/08 01:12:41;;;;;;;16.23;9.15;;;;;;;20.43;56.61;99664.38;5036000;28;20064;-84
2022/08/08 01:15:18;;;;;;;11.15;8.77;;;;;;;20.40;56.89;99668.28;5020098;28;20048;-84
2022/08/08 01:18:04;;;;;;;22.05;9.32;;;;;;;20.42;56.47;99668.91;5036197;28;20051;-83
2022/08/08 01:20:52;;;;;;;10.73;9.20;;;;;;;20.40;56.78;99673.69;5019461;28;20135;-82
2022/08/08 01:23:48;;;;;;;15.85;9.18;;;;;;;20.34;56.93;99675.25;5052343;28;20037;-82
2022/08/08 01:26:17;;;;;;;15.18;9.35;;;;;;;20.30;56.80;99662.22;5052721;28;20448;-81
2022/08/08 01:28:51;;;;;;;12.18;8.63;;;;;;;20.31;57.44;99666.59;5036561;28;20110;-83
2022/08/08 01:31:51;;;;;;;10.90;9.32;;;;;;;20.30;57.26;99676.63;5036163;28;20404;-83
2022/08/08 01:34:20;;;;;;;14.00;9.63;;;;;;;20.34;57.26;99677.94;5037206;28;20136;-84
2022/08/08 01:37:23;;;;;;;13.30;10.05;;;;;;;20.33;57.34;99670.00;5051826;28;20057;-83
2022/08/08 01:40:26;;;;;;;12.05;9.85;;;;;;;20.36;57.28;99677.78;5053431;28;20048;-83
2022/08/08 01:43:11;;;;;;;15.18;10.55;;;;;;;20.37;57.56;99671.34;5019161;28;20064;-82
2022/08/08 01:45:53;;;;;;;22.70;11.52;;;;;;;20.47;57.64;99677.41;5018954;28;20065;-82
2022/08/08 01:48:34;;;;;;;12.15;10.65;;;;;;;20.64;57.67;99674.59;5051949;28;20036;-82
2022/08/08 01:51:27;;;;;;;14.95;9.82;;;;;;;20.79;58.55;99675.53;5019071;28;20087;-83
2022/08/08 01:54:06;;;;;;;18.80;10.98;;;;;;;20.99;58.56;99663.16;5018871;28;20089;-84
2022/08/08 01:56:44;;;;;;;12.57;11.23;;;;;;;21.28;57.86;99669.69;5037004;28;20044;-83
2022/08/08 01:59:29;;;;;;;17.58;13.68;;;;;;;21.39;58.31;99673.88;5019657;28;20041;-83
2022/08/08 02:02:32;;;;;;;29.63;14.38;;;;;;;21.58;58.15;99674.19;5037007;28;20067;-84
2022/08/08 02:05:26;;;;;;;20.95;15.55;;;;;;;21.58;58.46;99676.91;5036515;28;20044;-83
2022/08/08 02:08:15;;;;;;;24.90;16.73;;;;;;;21.69;59.31;99674.75;5052242;28;20094;-83
2022/08/08 02:11:04;;;;;;;19.67;15.38;;;;;;;21.51;58.94;99666.94;5034930;28;20057;-83
2022/08/08 02:13:39;;;;;;;21.58;14.77;;;;;;;21.65;60.52;99665.28;5051923;28;20053;-84
2022/08/08 02:16:30;;;;;;;22.25;15.85;;;;;;;21.55;59.43;99666.41;5018847;28;20492;-83
2022/08/08 02:19:12;;;;;;;19.52;15.07;;;;;;;21.64;60.06;99663.59;5034795;28;20045;-83
2022/08/08 02:24:54;;;;;;;21.50;16.70;;;;;;;21.64;58.80;99663.59;5051417;28;20080;-82
2022/08/08 02:27:30;;;;;;;21.73;18.02;;;;;;;21.50;59.53;99668.81;5035653;28;20504;-84
2022/08/08 02:29:56;;;;;;;26.95;17.98;;;;;;;21.57;59.70;99674.38;5052126;28;20136;-83
2022/08/08 02:32:59;;;;;;;46.17;38.20;;;;;;;21.65;60.77;99671.56;5051581;28;20073;-81
2022/08/08 02:35:52;;;;;;;25.67;18.85;;;;;;;21.52;59.78;99672.22;5036835;28;20492;-83
2022/08/08 02:38:57;;;;;;;24.77;18.60;;;;;;;21.36;60.27;99682.41;5035636;28;20504;-81
2022/08/08 02:41:51;;;;;;;23.42;20.90;;;;;;;21.12;60.82;99681.56;5034578;28;20064;-77
2022/08/08 02:44:43;;;;;;;26.83;20.00;;;;;;;21.01;61.26;99680.09;5003406;28;20075;-81
2022/08/08 02:47:13;;;;;;;29.55;21.80;;;;;;;20.93;61.60;99682.06;5034595;28;20080;-82
2022/08/08 02:50:03;;;;;;;23.67;21.17;;;;;;;21.03;61.44;99682.66;5019323;28;20165;-80
2022/08/08 02:52:35;;;;;;;33.75;20.17;;;;;;;21.01;61.20;99685.53;5034768;28;20037;-80
2022/08/08 02:55:16;;;;;;;31.95;22.10;;;;;;;21.06;61.58;99679.56;5017744;28;20044;-81
2022/08/08 02:58:03;;;;;;;32.30;21.95;;;;;;;21.09;61.26;99674.59;5017700;28;20076;-83
2022/08/08 03:00:35;;;;;;;35.55;21.48;;;;;;;21.02;62.10;99681.78;5033774;28;20098;-83
2022/08/08 03:03:26;;;;;;;37.92;20.90;;;;;;;20.90;62.38;99669.66;5034933;28;20037;-81
2022/08/08 03:06:19;;;;;;;33.72;22.73;;;;;;;20.98;62.21;99672.31;5051521;28;20044;-79
2022/08/08 03:09:06;;;;;;;28.35;23.38;;;;;;;21.28;61.80;99686.84;5051968;28;20052;-88
2022/08/08 03:11:59;;;;;;;33.08;24.98;;;;;;;21.45;61.59;99686.75;5035396;28;20467;-81
2022/08/08 03:14:55;;;;;;;35.90;24.98;;;;;;;21.55;61.50;99681.88;5034161;28;20045;-80
2022/08/08 03:17:55;;;;;;;30.67;25.30;;;;;;;21.63;61.55;99676.38;5051260;28;20041;-79
2022/08/08 03:20:21;;;;;;;39.63;26.48;;;;;;;21.57;61.76;99675.22;5030742;28;20377;-83
2022/08/08 03:22:50;;;;;;;29.85;25.77;;;;;;;21.62;61.51;99673.81;5018585;28;20102;-77
2022/08/08 03:25:19;;;;;;;41.00;27.70;;;;;;;21.71;61.26;99678.16;5054716;28;20381;-78
2022/08/08 03:27:58;;;;;;;33.80;27.58;;;;;;;21.83;61.19;99685.66;5038100;28;20048;-80
2022/08/08 03:30:27;;;;;;;38.83;27.35;;;;;;;22.01;61.23;99681.72;5054647;28;20072;-80
2022/08/08 03:35:41;;;;;;;28.15;23.70;;;;;;;22.36;60.38;99691.00;5037918;28;20056;-81
2022/08/08 03:38:08;;;;;;;29.33;23.50;;;;;;;22.43;60.58;99696.53;5054244;28;20080;-80
2022/08/08 03:40:35;;;;;;;25.73;21.92;;;;;;;22.47;60.81;99690.50;5021075;28;20067;-79
2022/08/08 03:43:07;;;;;;;25.67;22.13;;;;;;;22.36;60.75;99685.56;5037946;28;20142;-79
2022/08/08 03:45:33;;;;;;;25.17;22.27;;;;;;;22.18;61.72;99682.38;5021087;28;20036;-78
2022/08/08 03:48:04;;;;;;;37.60;22.45;;;;;;;22.22;61.87;99697.31;5055313;28;20132;-79
2022/08/08 03:50:36;;;;;;;34.08;24.77;;;;;;;22.22;61.71;99686.41;5053871;28;20052;-79
2022/08/08 03:53:06;;;;;;;;;;;;;;;22.35;61.28;99700.22;5037989;28;20041;-79
2022/08/08 03:55:32;;;;;;;42.30;26.33;;;;;;;22.36;61.34;99710.06;5070758;28;19920;-79
2022/08/08 03:57:58;;;;;;;45.63;25.88;;;;;;;22.61;61.00;99704.31;5053886;28;20045;-79
2022/08/08 04:00:26;;;;;;;42.67;26.98;;;;;;;22.81;60.55;99705.38;5020272;28;20041;-80
2022/08/08 04:03:03;;;;;;;37.47;27.00;;;;;;;22.91;59.93;99700.47;5020316;28;20068;-80
2022/08/08 04:05:37;;;;;;;36.70;27.27;;;;;;;23.03;59.54;99698.91;5035404;28;20132;-78
2022/08/08 04:08:17;;;;;;;45.78;26.80;;;;;;;23.24;59.57;99705.41;5052293;28;20136;-80
2022/08/08 04:10:49;;;;;;;33.85;27.50;;;;;;;23.33;58.80;99698.78;5052566;28;20124;-79
2022/08/08 04:13:16;;;;;;;38.30;29.70;;;;;;;23.34;58.78;99699.63;5019355;28;20067;-80
2022/08/08 04:15:43;;;;;;;45.95;30.38;;;;;;;23.39;58.72;99697.97;5035957;28;20098;-79
2022/08/08 04:18:10;;;;;;;48.55;29.13;;;;;;;23.66;57.81;99699.06;5020977;28;20135;-79
2022/08/08 04:20:37;;;;;;;50.70;27.00;;;;;;;23.96;56.92;99709.78;5053716;28;20102;-79
2022/08/08 04:23:04;;;;;;;50.90;29.30;;;;;;;24.07;56.78;99705.63;5054947;28;20036;-79
2022/08/08 04:25:31;;;;;;;41.90;28.02;;;;;;;24.25;56.59;99714.13;5053482;28;20116;-79
2022/08/08 04:27:57;;;;;;;41.08;25.83;;;;;;;24.32;56.05;99695.03;5036769;28;20404;-79
2022/08/08 04:30:23;;;;;;;35.97;26.38;;;;;;;24.53;55.71;99710.50;5053483;28;20097;-79
2022/08/08 04:32:51;;;;;;;43.45;28.40;;;;;;;24.44;55.61;99707.94;5036786;28;20048;-78
2022/08/08 04:35:21;;;;;;;41.40;27.85;;;;;;;24.62;55.10;99714.75;5036476;28;20163;-78
2022/08/08 04:37:47;;;;;;;33.97;26.92;;;;;;;24.82;55.16;99710.16;5054259;28;20151;-79
2022/08/08 04:40:17;;;;;;;39.67;26.10;;;;;;;25.04;54.43;99696.34;5037333;28;20131;-79
2022/08/08 04:42:48;;;;;;;32.17;24.38;;;;;;;25.24;53.64;99702.72;5053499;28;20041;-79
2022/08/08 04:45:14;;;;;;;42.63;21.27;;;;;;;25.23;52.98;99714.69;5036675;28;20048;-78
2022/08/08 04:47:40;;;;;;;35.42;22.77;;;;;;;25.05;53.15;99714.44;5036542;28;20527;-79
2022/08/08 04:50:07;;;;;;;43.85;23.05;;;;;;;25.21;53.07;99714.09;5036396;28;20052;-79
2022/08/08 04:52:35;;;;;;;35.85;22.80;;;;;;;25.39;52.95;99710.72;5053012;28;20123;-79
2022/08/08 04:55:07;;;;;;;40.20;21.60;;;;;;;25.65;52.71;99710.72;5053184;28;20511;-80
2022/08/08 04:57:34;;;;;;;41.33;25.25;;;;;;;25.73;52.05;99715.13;5020322;28;20037;-80
2022/08/08 05:00:00;;;;;;;39.60;24.98;;;;;;;25.81;51.92;99709.47;5052995;28;20045;-80
2022/08/08 05:02:28;;;;;;;43.17;26.52;;;;;;;25.96;51.61;99711.13;5052703;28;20045;-79
2022/08/08 05:04:54;;;;;;;37.28;24.52;;;;;;;26.13;51.15;99701.38;5052971;28;20063;-80
2022/08/08 05:07:20;;;;;;;35.38;23.40;;;;;;;26.39;50.47;99705.94;5036800;28;20549;-79
2022/08/08 05:09:46;;;;;;;37.13;23.35;;;;;;;26.57;50.30;99708.00;5035958;28;20033;-80
2022/08/08 05:12:12;;;;;;;39.65;20.45;;;;;;;26.74;49.63;99700.09;5036005;28;20514;-78
2022/08/08 05:14:38;;;;;;;54.75;21.60;;;;;;;26.74;48.86;99697.38;5036459;28;20045;-80
2022/08/08 05:17:07;;;;;;;39.85;19.77;;;;;;;26.83;48.89;99696.91;5035752;28;20047;-79
2022/08/08 05:19:34;;;;;;;51.78;20.60;;;;;;;26.72;48.08;99692.09;5035910;28;20040;-79
2022/08/08 05:22:01;;;;;;;41.70;20.92;;;;;;;26.78;48.25;99699.47;5035907;28;20063;-80
2022/08/08 05:24:30;;;;;;;57.22;22.23;;;;;;;26.64;48.73;99704.19;5035650;28;20045;-79
2022/08/08 05:26:57;;;;;;;34.38;21.20;;;;;;;26.60;48.93;99694.72;5052775;28;20060;-80
2022/08/08 05:29:24;;;;;;;45.75;22.80;;;;;;;26.58;48.72;99693.22;5052379;28;20589;-79
2022/08/08 05:31:50;;;;;;;41.30;19.77;;;;;;;26.70;48.42;99691.47;5053788;28;20044;-80
2022/08/08 05:34:41;;;;;;;40.10;17.52;;;;;;;26.91;47.12;99693.06;5035689;28;20037;-79
2022/08/08 05:37:07;;;;;;;29.38;15.35;;;;;;;27.06;47.19;99687.25;5010478;28;20150;-80
2022/08/08 05:39:34;;;;;;;35.65;14.85;;;;;;;27.34;46.24;99689.59;5035740;28;20045;-78
2022/08/08 05:42:00;;;;;;;31.40;15.18;;;;;;;27.47;46.46;99703.22;5051798;28;20053;-77
2022/08/08 05:44:35;;;;;;;28.27;18.23;;;;;;;27.45;46.12;99699.84;5035683;28;20118;-80
2022/08/08 05:47:01;;;;;;;27.45;17.70;;;;;;;27.35;46.38;99688.56;5034884;28;20083;-79
2022/08/08 05:49:27;;;;;;;27.10;14.63;;;;;;;27.52;46.20;99697.06;5034880;28;20052;-79
2022/08/08 05:51:54;;;;;;;25.55;16.55;;;;;;;27.48;45.56;99698.56;5051532;28;20427;-79
2022/08/08 05:54:23;;;;;;;42.55;19.73;;;;;;;27.34;45.96;99686.84;5019385;28;20139;-79
2022/08/08 05:56:52;;;;;;;30.27;18.10;;;;;;;27.33;46.11;99691.50;5051588;28;20577;-80
2022/08/08 05:59:23;;;;;;;51.13;19.58;;;;;;;27.62;46.06;99697.41;5019653;28;20048;-80
2022/08/08 06:01:58;;;;;;;32.25;17.27;;;;;;;28.08;45.35;99698.88;5051936;28;20045;-79
2022/08/08 06:04:28;;;;;;;40.53;20.38;;;;;;;28.31;44.04;99696.25;5035506;28;20056;-79
2022/08/08 06:07:02;;;;;;;46.22;19.40;;;;;;;28.25;43.99;99675.22;5019796;28;20045;-79
2022/08/08 06:09:36;;;;;;;61.05;23.65;;;;;;;28.26;44.46;99700.78;5035168;28;20056;-79
2022/08/08 06:12:03;;;;;;;44.80;21.60;;;;;;;28.15;45.06;99688.63;5051541;28;20079;-79
2022/08/08 06:14:30;;;;;;;35.23;19.27;;;;;;;28.47;44.69;99680.25;5051789;28;20194;-79
2022/08/08 06:17:00;;;;;;;;;;;;;;;28.87;43.32;99701.72;5035312;28;20291;-79
2022/08/08 06:19:49;;;;;;;32.78;20.45;;;;;;;28.86;44.16;99702.81;5051763;28;19920;-80
2022/08/08 06:22:16;;;;;;;42.30;20.10;;;;;;;29.14;43.61;99694.78;5051584;28;20403;-79
2022/08/08 06:24:47;;;;;;;34.72;17.70;;;;;;;29.33;42.93;99694.69;5034753;28;20527;-80
2022/08/08 06:27:19;;;;;;;38.72;18.13;;;;;;;29.24;42.62;99681.28;5051536;28;20131;-80
2022/08/08 06:30:02;;;;;;;38.92;16.80;;;;;;;29.41;43.08;99697.09;5018514;28;20041;-79
2022/08/08 06:32:44;;;;;;;34.95;16.90;;;;;;;29.29;42.70;99695.16;5019512;28;20037;-79
2022/08/08 06:35:13;;;;;;;37.35;16.27;;;;;;;29.04;43.05;99686.28;5018396;28;20530;-80
2022/08/08 06:38:03;;;;;;;48.83;16.08;;;;;;;29.11;43.08;99692.50;5051019;28;20057;-80
2022/08/08 06:40:34;;;;;;;29.17;14.10;;;;;;;29.51;42.34;99686.34;5051635;28;20398;-80
2022/08/08 06:43:08;;;;;;;33.30;13.50;;;;;;;29.74;41.60;99682.78;5034817;28;20141;-81
2022/08/08 06:45:45;;;;;;;27.75;11.77;;;;;;;29.85;41.48;99681.94;5052179;28;20049;-79
2022/08/08 06:48:12;;;;;;;30.88;10.38;;;;;;;30.03;40.64;99672.69;5034672;28;20056;-80
2022/08/08 06:50:40;;;;;;;22.23;10.50;;;;;;;30.35;39.87;99686.09;5035079;28;20120;-79
2022/08/08 06:53:10;;;;;;;16.25;10.30;;;;;;;30.49;39.04;99687.50;5035058;28;20411;-79
2022/08/08 06:55:38;;;;;;;18.13;9.85;;;;;;;30.75;38.79;99675.06;5034531;28;20113;-79
2022/08/08 06:58:04;;;;;;;30.70;9.52;;;;;;;31.00;38.29;99685.75;5052157;28;20136;-80
2022/08/08 07:00:34;;;;;;;28.77;10.43;;;;;;;30.80;37.19;99666.03;5038514;28;20044;-78
2022/08/08 07:03:01;;;;;;;18.58;8.73;;;;;;;30.93;37.72;99682.31;5038272;28;20048;-80
2022/08/08 07:05:32;;;;;;;24.95;9.18;;;;;;;30.59;37.62;99673.91;5038412;28;20040;-80
2022/08/08 07:08:00;;;;;;;23.83;9.40;;;;;;;30.49;37.26;99676.44;5055169;28;20064;-79
2022/08/08 07:10:34;;;;;;;23.60;8.63;;;;;;;30.72;37.52;99681.88;5055063;28;20041;-79
2022/08/08 07:13:08;;;;;;;21.17;9.05;;;;;;;30.82;36.67;99674.94;5055180;28;20041;-81
2022/08/08 07:16:04;;;;;;;28.73;8.18;;;;;;;30.83;35.95;99676.59;5055566;28;20409;-79
2022/08/08 07:19:04;;;;;;;17.35;8.18;;;;;;;30.63;36.09;99664.06;5055266;28;20468;-79
2022/08/08 07:21:54;;;;;;;24.20;8.15;;;;;;;30.99;36.71;99670.25;5044519;28;20420;-79
2022/08/08 07:24:36;;;;;;;28.77;9.40;;;;;;;31.19;36.10;99676.16;5054899;28;20083;-79
2022/08/08 07:27:05;;;;;;;27.02;8.70;;;;;;;31.26;35.07;99658.59;5038140;28;20083;-78
2022/08/08 07:29:35;;;;;;;23.42;7.63;;;;;;;31.53;34.82;99665.13;5054934;28;20083;-78
2022/08/08 07:32:03;;;;;;;25.42;7.68;;;;;;;31.33;34.47;99648.22;5021816;28;20036;-79
2022/08/08 07:34:30;;;;;;;36.22;8.30;;;;;;;31.07;34.55;99650.53;5054481;28;20049;-79
2022/08/08 07:36:57;;;;;;;40.28;9.50;;;;;;;31.21;34.91;99646.34;5037556;28;20075;-79
2022/08/08 07:39:23;;;;;;;23.87;8.40;;;;;;;31.14;34.93;99648.47;5054222;28;20075;-80
2022/08/08 07:41:50;;;;;;;31.55;7.82;;;;;;;31.18;34.62;99652.41;5037663;28;20714;-78
2022/08/08 07:44:18;;;;;;;17.13;6.45;;;;;;;31.34;33.78;99647.16;5037802;28;20045;-79
2022/08/08 07:46:45;;;;;;;23.13;6.35;;;;;;;31.44;33.85;99645.41;5037224;28;20040;-79
2022/08/08 07:49:14;;;;;;;26.80;6.05;;;;;;;31.67;33.66;99649.06;5037551;28;20047;-79
2022/08/08 07:51:42;;;;;;;14.77;6.35;;;;;;;32.00;33.15;99639.03;5054462;28;20099;-80
2022/08/08 07:54:36;;;;;;;9.65;5.88;;;;;;;31.78;32.93;99644.50;5037643;28;20064;-80
2022/08/08 07:57:29;;;;;;;16.33;6.18;;;;;;;31.84;33.13;99643.47;5054523;28;20041;-80
2022/08/08 08:00:14;;;;;;;18.70;6.55;;;;;;;32.06;32.90;99646.31;5054475;28;20044;-78
2022/08/08 08:03:10;;;;;;;13.57;6.50;;;;;;;32.59;32.97;99628.16;5053821;28;20535;-79
2022/08/08 08:05:50;;;;;;;9.70;5.50;;;;;;;33.12;31.94;99637.56;5054357;28;20124;-78
2022/08/08 08:08:22;;;;;;;10.02;5.85;;;;;;;33.09;31.07;99633.38;5037611;28;20045;-78
2022/08/08 08:10:55;;;;;;;12.80;5.32;;;;;;;32.88;31.26;99620.44;5037559;28;20043;-81
2022/08/08 08:13:47;;;;;;;6.82;5.05;;;;;;;32.85;31.54;99626.50;5021167;28;20128;-78
2022/08/08 08:16:26;;;;;;;13.15;5.72;;;;;;;33.04;31.50;99613.97;5053333;28;20060;-78
2022/08/08 08:19:01;;;;;;;14.95;5.15;;;;;;;33.01;31.50;99622.78;5021263;28;20495;-80
2022/08/08 08:21:46;;;;;;;8.70;4.82;;;;;;;33.19;31.29;99632.63;5037667;28;20048;-78
2022/08/08 08:24:25;;;;;;;14.27;5.40;;;;;;;33.51;30.81;99620.72;5053396;28;20048;-79
2022/08/08 08:26:51;;;;;;;6.37;5.50;;;;;;;33.79;30.26;99630.59;5053425;28;20420;-80
2022/08/08 08:29:17;;;;;;;8.10;5.13;;;;;;;33.85;29.91;99612.88;5053757;28;20283;-80
2022/08/08 08:31:46;;;;;;;8.20;5.23;;;;;;;34.10;29.65;99611.38;5055411;28;20377;-81
2022/08/08 08:34:13;;;;;;;;;;;;;;;33.96;29.46;99609.03;5053785;28;20280;-80
2022/08/08 08:36:40;;;;;;;15.60;5.03;;;;;;;33.82;29.86;99613.44;5020427;28;19924;-79
2022/08/08 08:39:07;;;;;;;12.73;4.90;;;;;;;33.83;29.67;99617.88;5036727;28;20108;-81
2022/08/08 08:41:42;;;;;;;5.10;4.57;;;;;;;33.43;30.05;99613.69;5038344;28;20280;-81
2022/08/08 08:44:09;;;;;;;6.45;4.95;;;;;;;33.41;30.36;99613.16;5053425;28;20127;-81
2022/08/08 08:46:37;;;;;;;8.98;4.72;;;;;;;33.83;29.96;99615.09;5053131;28;20145;-80
2022/08/08 08:49:04;;;;;;;9.65;4.72;;;;;;;34.26;28.90;99613.09;5053410;28;20535;-80
2022/08/08 08:51:37;;;;;;;12.38;5.05;;;;;;;34.26;29.05;99611.13;5036628;28;20448;-78
2022/08/08 08:54:06;;;;;;;19.67;5.43;;;;;;;34.65;28.49;99610.75;5053060;28;20083;-80
2022/08/08 08:56:36;;;;;;;18.38;5.03;;;;;;;34.85;28.11;99609.09;5020100;28;20145;-79
2022/08/08 08:59:14;;;;;;;6.78;4.80;;;;;;;34.65;27.38;99621.84;5021771;28;20482;-79
2022/08/08 09:01:46;;;;;;;9.60;4.40;;;;;;;34.40;27.50;99614.25;5053009;28;20075;-79
2022/08/08 09:04:24;;;;;;;11.15;4.63;;;;;;;34.22;27.19;99617.50;5036145;28;20577;-80
2022/08/08 09:06:52;;;;;;;9.90;4.60;;;;;;;34.06;27.82;99608.31;5036518;28;20083;-79
2022/08/08 09:09:26;;;;;;;5.97;4.25;;;;;;;34.42;27.76;99606.50;5053257;28;20044;-80
2022/08/08 09:12:00;;;;;;;6.30;4.10;;;;;;;34.92;27.20;99599.38;5052944;28;20436;-79
2022/08/08 09:14:26;;;;;;;6.68;4.40;;;;;;;35.28;26.73;99596.63;5019895;28;20037;-79
2022/08/08 09:16:55;;;;;;;8.27;4.10;;;;;;;35.25;26.46;99594.41;5036487;28;20098;-80
2022/08/08 09:19:21;;;;;;;15.73;4.50;;;;;;;35.25;26.72;99598.03;5053586;28;20045;-81
2022/08/08 09:21:50;;;;;;;18.70;5.15;;;;;;;34.89;26.03;99582.44;5051757;28;20147;-79
2022/08/08 09:24:17;;;;;;;10.15;4.32;;;;;;;34.56;26.45;99592.94;5035815;28;20037;-80
2022/08/08 09:26:55;;;;;;;8.75;3.90;;;;;;;35.07;26.82;99601.38;5052438;28;20496;-80
2022/08/08 09:29:22;;;;;;;;;;;;;;;35.00;26.63;99595.25;5053116;28;20174;-78
2022/08/08 09:32:06;;;;;;;15.80;4.30;;;;;;;34.93;26.97;99595.47;5019401;28;20329;-78
2022/08/08 09:34:49;;;;;;;5.97;4.30;;;;;;;35.32;26.38;99585.78;5038082;28;20330;-79
2022/08/08 09:37:18;;;;;;;30.88;5.80;;;;;;;35.45;25.96;99591.59;5018891;28;20156;-79
2022/08/08 09:39:59;;;;;;;4.50;4.10;;;;;;;35.43;25.40;99592.97;5052097;28;20484;-79
2022/08/08 09:42:33;;;;;;;5.95;3.95;;;;;;;35.22;25.84;99573.56;5019253;28;20041;-79
2022/08/08 09:45:06;;;;;;;6.82;4.40;;;;;;;35.20;26.08;99578.56;5053386;28;20442;-79
2022/08/08 09:47:34;;;;;;;13.55;4.93;;;;;;;35.16;25.84;99580.22;5019122;28;20136;-79
2022/08/08 09:50:08;;;;;;;12.13;4.40;;;;;;;35.32;25.52;99588.56;5052110;28;20110;-78
2022/08/08 09:52:35;;;;;;;11.48;4.43;;;;;;;35.60;25.59;99585.19;5052119;28;20045;-78
2022/08/08 09:55:01;;;;;;;6.95;4.55;;;;;;;35.09;25.49;99593.56;5051891;28;20500;-80
2022/08/08 09:57:38;;;;;;;10.98;4.00;;;;;;;34.76;25.38;99578.28;5052139;28;20033;-78
2022/08/08 10:00:09;;;;;;;10.63;4.20;;;;;;;35.11;24.98;99590.53;5051958;28;20586;-79
2022/08/08 10:02:43;;;;;;;5.80;4.07;;;;;;;35.45;24.38;99577.69;5035036;28;20057;-80
2022/08/08 10:05:12;;;;;;;8.32;4.03;;;;;;;35.85;23.66;99567.63;5051866;28;20112;-78
2022/08/08 10:07:54;;;;;;;12.20;4.35;;;;;;;36.57;22.72;99570.09;5035309;28;20140;-79
2022/08/08 10:10:28;;;;;;;3.97;3.53;;;;;;;36.24;22.47;99584.44;5035020;28;20507;-79
2022/08/08 10:12:54;;;;;;;9.50;3.90;;;;;;;36.15;22.61;99568.63;5035092;28;20033;-78
2022/08/08 10:15:35;;;;;;;6.97;4.03;;;;;;;36.32;23.12;99571.84;5052685;28;20412;-79
2022/08/08 10:18:04;;;;;;;4.90;3.97;;;;;;;37.12;22.46;99562.41;5034919;28;20115;-79
2022/08/08 10:20:46;;;;;;;6.75;3.90;;;;;;;36.94;22.01;99570.38;5052630;28;20407;-78
2022/08/08 10:23:17;;;;;;;8.98;4.00;;;;;;;37.15;22.06;99572.97;5051503;28;20052;-79
2022/08/08 10:25:45;;;;;;;7.15;3.97;;;;;;;37.59;21.48;99572.84;5052790;28;20152;-79
2022/08/08 10:28:16;;;;;;;4.50;3.78;;;;;;;37.98;21.03;99579.38;5034695;28;20053;-79
2022/08/08 10:30:57;;;;;;;5.15;3.75;;;;;;;37.73;20.44;99578.56;5050808;28;20518;-79
2022/08/08 10:33:33;;;;;;;8.48;3.78;;;;;;;38.17;20.84;99577.47;5034843;28;20065;-80
2022/08/08 10:36:02;;;;;;;6.38;3.83;;;;;;;38.29;20.66;99568.63;5035460;28;20090;-78
2022/08/08 10:38:34;;;;;;;25.17;4.20;;;;;;;37.63;20.99;99567.50;5052461;28;20144;-79
2022/08/08 10:41:04;;;;;;;5.32;3.47;;;;;;;37.10;22.04;99559.09;5051013;28;20040;-79
2022/08/08 10:43:38;;;;;;;8.95;3.70;;;;;;;37.36;21.48;99568.06;5034495;28;20040;-78
2022/08/08 10:46:24;;;;;;;9.55;3.80;;;;;;;37.93;20.75;99562.72;5051026;28;20131;-79
2022/08/08 10:48:55;;;;;;;7.68;3.83;;;;;;;37.92;20.71;99553.53;5051189;28;20041;-80
2022/08/08 10:51:26;;;;;;;11.32;4.07;;;;;;;37.99;20.82;99547.56;5002411;28;20135;-79
2022/08/08 10:53:56;;;;;;;7.68;3.70;;;;;;;38.23;20.75;99541.94;5051223;28;20040;-79
2022/08/08 10:56:22;;;;;;;8.88;3.53;;;;;;;38.45;20.59;99549.75;5017897;28;20522;-79
2022/08/08 10:58:59;;;;;;;7.40;3.33;;;;;;;38.01;21.13;99539.72;5052519;28;20041;-79
2022/08/08 11:01:31;;;;;;;7.18;3.70;;;;;;;38.07;21.03;99546.91;5034853;28;20041;-80
2022/08/08 11:03:58;;;;;;;5.38;3.80;;;;;;;38.35;20.83;99529.22;5034248;28;20078;-79
2022/08/08 11:06:32;;;;;;;8.38;3.58;;;;;;;38.55;20.65;99535.63;5051229;28;20062;-78
2022/08/08 11:09:06;;;;;;;7.90;3.80;;;;;;;38.10;20.42;99541.56;5018469;28;20045;-78
2022/08/08 11:11:43;;;;;;;5.88;3.58;;;;;;;38.97;20.07;99533.81;5034878;28;20045;-78
2022/08/08 11:14:12;;;;;;;4.00;3.60;;;;;;;39.79;19.99;99533.97;5034304;28;20143;-78
2022/08/08 11:16:43;;;;;;;4.28;3.22;;;;;;;40.01;18.83;99529.59;5034367;28;20041;-79
2022/08/08 11:19:08;;;;;;;5.68;3.40;;;;;;;40.05;18.43;99530.63;5034403;28;20037;-78
2022/08/08 11:21:44;;;;;;;9.43;3.63;;;;;;;39.41;18.55;99532.50;5052104;28;20052;-79
2022/08/08 11:24:11;;;;;;;6.40;3.45;;;;;;;39.54;18.93;99531.69;5052183;28;20047;-78
2022/08/08 11:26:41;;;;;;;6.32;3.60;;;;;;;40.54;19.02;99535.41;5050703;28;20384;-80
2022/08/08 11:29:07;;;;;;;11.98;4.03;;;;;;;40.50;19.17;99534.38;5050738;28;20045;-78
2022/08/08 11:31:37;;;;;;;7.43;3.85;;;;;;;39.24;19.83;99533.94;5034162;28;20482;-79
2022/08/08 11:34:04;;;;;;;7.90;3.92;;;;;;;39.07;20.29;99528.06;5051939;28;20468;-77
2022/08/08 11:36:32;;;;;;;4.13;3.30;;;;;;;39.15;19.61;99524.56;5052219;28;20041;-78
2022/08/08 11:38:58;;;;;;;;;;;;;;;39.53;19.56;99524.41;5034484;28;20061;-77
2022/08/08 11:41:26;;;;;;;4.32;3.17;;;;;;;40.03;18.92;99510.53;5050763;28;19920;-77
2022/08/08 11:43:56;;;;;;;8.30;3.63;;;;;;;40.63;18.56;99515.91;5034911;28;20052;-78
2022/08/08 11:46:26;;;;;;;11.98;3.92;;;;;;;41.00;18.75;99511.06;5054239;28;20059;-78
2022/08/08 11:48:55;;;;;;;8.57;3.58;;;;;;;40.67;18.86;99514.13;5055506;28;20411;-78
2022/08/08 11:51:23;;;;;;;12.35;3.60;;;;;;;40.44;18.63;99515.22;5021191;28;20049;-78
2022/08/08 11:53:50;;;;;;;9.70;3.75;;;;;;;40.03;19.40;99510.53;5055415;28;20500;-78
2022/08/08 11:56:32;;;;;;;9.20;3.47;;;;;;;40.25;18.75;99499.41;5055334;28;20071;-78
2022/08/08 11:59:06;;;;;;;13.80;3.65;;;;;;;40.88;18.17;99511.59;5020836;28;20048;-77
2022/08/08 12:01:33;;;;;;;9.95;3.58;;;;;;;41.38;17.95;99499.38;5037474;28;20466;-80
2022/08/08 12:03:59;;;;;;;11.55;3.65;;;;;;;41.63;17.38;99495.84;5053888;28;20131;-79
2022/08/08 12:06:25;;;;;;;4.28;3.38;;;;;;;41.47;17.19;99514.28;5055022;28;20102;-78